岡山グライダークラブ活動状況掲示板

岡山グライダークラブ
岡山市浦安南町639-1 岡南飛行場
 使用機:シャイベ式 SF25C型 ファルケ   JA2330
      ヴァレンティン式17E型 タイフーン  JA2342
 練習日:毎日曜日  クラブルーム:電話 086-265-1810
この掲示板は岡山グライダークラブの活動状況をお知らせする掲示板です。
!!!この掲示板は投稿規制をしています。!!!
クラブ関連各種情報は 岡山グライダークラブクラブルーム      を       .
  ブリーフイング情報は  岡山グライダークラブブリーフィングルーム  をご覧下さい。 .
※写真はクリックすると拡大して見ることが出来ます。
岡南飛行場へのアクセス等は 岡南飛行場管理事務所 をご覧ください。
クラブの ホームページ ができました。

!!!お待たせしました。新型コロナ感染症の感染が下火になったことから見学者等の受入を再開します。!!!
  注)なお、見学等の際には一般的な感染対策(マスク、ソーシャルディスタンス、黙食等)を順守してください。

 
12月11日
by OGC at 2022/12/11(日) 20:14:22 No.20221211200823  削除コメント
640 x 480 x 80,376バイト
No.1

12月11日
本日の参加者
  会員      14名
  その他     01名


@本日の様子






METAR
RJBK 110000Z 21003KT 20KM FEW030CU SCT040CU BKN050SC 09/07 Q1015 A2999
RJOB 110000Z 27005KT 9999 VCSH FEW025 BKN060 BKN070 10/05 Q1014
RJOT 110000Z 22005KT 9999 VCSH FEW005 SCT035 BKN050 09/08 Q1015
RJOA 110000Z 32010KT 9999 FEW015 SCT040 BKN080 10/05 Q1015
TAF
RJOB 102305Z 1100/1206 26008KT 9999 FEW025 SCT045
     BECMG 1104/1106 02008KT
     BECMG 1203/1206 16004KT
RJOT 102306Z 1100/1206 27008KT 9999 FEW015 BKN035
     BECMG 1107/1109 03008KT
RJOA 102306Z 1100/1206 31008KT 9999 FEW020 SCT040
     BECMG 1107/1109 02011KT
     BECMG 1200/1203 12007KT


本日の天候は曇り。日没は16時54分でした。日没が最も早い日は12月06日
でしたので、これから徐々に遅くなると思います。
風が途中から真横の風に変わり、かつ、凸凹もあり着陸しにくい一日になりました。


解散    17:00

1番機  12:10離陸 撤収機  15:40着陸 

SF25C JA2330 ファルケ     08Flt.1h40min  
17E   JA2342 タイフーン    00Flt.0h00min
合計                    08Flt.1h40min

    << 戻る || ホームページ || 最新の掲示板へ